createdAt,value
2017-07-05T00:00:57.612Z,1013.2
2017-07-05T00:01:59.021Z,1013.3
2017-07-05T00:03:00.475Z,1013.3
2017-07-05T00:04:01.871Z,1013.2
2017-07-05T00:05:03.269Z,1013.2
2017-07-05T00:06:04.801Z,1013.2
2017-07-05T00:07:06.232Z,1013.2
2017-07-05T00:08:07.629Z,1013.2
2017-07-05T00:09:09.131Z,1013.2
2017-07-05T00:10:10.529Z,1013.2
2017-07-05T00:11:11.997Z,1013.2
2017-07-05T00:12:13.395Z,1013.2
2017-07-05T00:13:14.893Z,1013.2
2017-07-05T00:14:16.325Z,1013.2
2017-07-05T00:15:17.744Z,1013.1
2017-07-05T00:16:19.253Z,1013.2
2017-07-05T00:17:20.654Z,1013.1
2017-07-05T00:18:22.093Z,1013.1
2017-07-05T00:19:23.712Z,1013.1
2017-07-05T00:20:25.117Z,1013.1
2017-07-05T00:21:26.627Z,1013.1
2017-07-05T00:22:28.023Z,1013.1
2017-07-05T00:23:29.489Z,1013.1
2017-07-05T00:24:30.886Z,1013.1
2017-07-05T00:25:32.287Z,1013.0
2017-07-05T00:26:33.810Z,1013.1
2017-07-05T00:27:35.207Z,1013.1
2017-07-05T00:28:36.641Z,1013.1
2017-07-05T00:29:38.139Z,1013.1
2017-07-05T00:30:39.552Z,1013.1
2017-07-05T00:31:40.967Z,1013.1
2017-07-05T00:32:42.457Z,1013.1
2017-07-05T00:33:43.885Z,1013.1
2017-07-05T00:34:45.287Z,1013.1
2017-07-05T00:35:46.768Z,1013.1
2017-07-05T00:36:48.169Z,1013.1
2017-07-05T00:37:49.678Z,1013.1
2017-07-05T00:38:51.129Z,1013.1
2017-07-05T00:39:52.528Z,1013.1
2017-07-05T00:40:53.961Z,1013.1
2017-07-05T00:41:55.371Z,1013.1
2017-07-05T00:42:56.769Z,1013.2
2017-07-05T00:43:58.289Z,1013.1
2017-07-05T00:44:59.704Z,1013.1
2017-07-05T00:46:01.292Z,1013.1
2017-07-05T00:47:02.815Z,1013.1
2017-07-05T00:48:04.230Z,1013.2
2017-07-05T00:49:05.661Z,1013.2
2017-07-05T00:50:07.149Z,1013.2
2017-07-05T00:51:08.545Z,1013.2
2017-07-05T00:52:10.148Z,1013.3
2017-07-05T00:53:11.553Z,1013.2
2017-07-05T00:54:13.100Z,1013.2
2017-07-05T00:55:14.501Z,1013.2
2017-07-05T00:56:15.900Z,1013.2
2017-07-05T00:57:17.437Z,1013.2
2017-07-05T00:58:18.834Z,1013.2
2017-07-05T00:59:20.256Z,1013.2
2017-07-05T01:00:21.743Z,1013.2
2017-07-05T01:01:23.146Z,1013.2
2017-07-05T01:02:24.542Z,1013.2
2017-07-05T01:03:26.062Z,1013.2
2017-07-05T01:04:27.529Z,1013.2
2017-07-05T01:05:28.924Z,1013.1
2017-07-05T01:06:30.420Z,1013.2
2017-07-05T01:07:31.841Z,1013.1
2017-07-05T01:08:33.256Z,1013.1
2017-07-05T01:09:34.810Z,1013.1
2017-07-05T01:10:36.249Z,1013.1
2017-07-05T01:11:37.801Z,1013.1
2017-07-05T01:12:39.203Z,1013.0
2017-07-05T01:13:40.673Z,1013.0
2017-07-05T01:14:42.092Z,1013.0
2017-07-05T01:15:43.683Z,1013.1
2017-07-05T01:16:45.091Z,1013.1
2017-07-05T01:17:46.747Z,1013.0
2017-07-05T01:18:48.158Z,1013.1
2017-07-05T01:19:49.825Z,1013.1
2017-07-05T01:20:51.224Z,1013.0
2017-07-05T01:21:52.925Z,1013.1
2017-07-05T01:22:54.314Z,1013.0
2017-07-05T01:23:56.015Z,1013.0
2017-07-05T01:24:57.417Z,1013.0
2017-07-05T01:25:58.838Z,1012.9
2017-07-05T01:27:00.534Z,1013.0
2017-07-05T01:28:01.989Z,1013.0
2017-07-05T01:29:03.383Z,1013.0
2017-07-05T01:30:05.070Z,1013.0
2017-07-05T01:31:06.484Z,1012.9
2017-07-05T01:32:08.156Z,1012.9
2017-07-05T01:33:09.560Z,1012.9
2017-07-05T01:34:11.223Z,1012.9
2017-07-05T01:35:12.620Z,1012.9
2017-07-05T01:36:14.031Z,1012.9
2017-07-05T01:37:15.743Z,1012.9
2017-07-05T01:38:17.144Z,1012.8
2017-07-05T01:39:18.546Z,1012.8
2017-07-05T01:40:20.075Z,1012.8
2017-07-05T01:41:21.462Z,1012.8
2017-07-05T01:42:23.151Z,1012.8
2017-07-05T01:43:24.554Z,1012.8
2017-07-05T01:44:26.251Z,1012.8
2017-07-05T01:45:27.649Z,1012.8
2017-07-05T01:46:29.055Z,1012.8
2017-07-05T01:47:30.772Z,1012.8
2017-07-05T01:48:32.175Z,1012.8
2017-07-05T01:49:33.992Z,1012.8
2017-07-05T01:50:35.955Z,1012.8
2017-07-05T01:51:37.354Z,1012.8
2017-07-05T01:52:38.754Z,1012.8
2017-07-05T01:53:40.481Z,1012.7
2017-07-05T01:54:41.911Z,1012.8
2017-07-05T01:55:43.330Z,1012.7
2017-07-05T01:56:44.983Z,1012.8
2017-07-05T01:57:46.421Z,1012.8
2017-07-05T01:58:47.821Z,1012.8
2017-07-05T01:59:49.501Z,1012.7
2017-07-05T02:00:50.925Z,1012.8
2017-07-05T02:01:52.316Z,1012.8
2017-07-05T02:02:54.025Z,1012.7
2017-07-05T02:03:55.431Z,1012.7
2017-07-05T02:04:56.887Z,1012.7
2017-07-05T02:05:58.535Z,1012.8
2017-07-05T02:06:59.980Z,1012.7
2017-07-05T02:08:01.639Z,1012.8
2017-07-05T02:09:03.036Z,1012.8
2017-07-05T02:10:04.752Z,1012.8
2017-07-05T02:11:06.148Z,1012.7
2017-07-05T02:12:07.791Z,1012.8
2017-07-05T02:13:09.186Z,1012.7
2017-07-05T02:14:10.879Z,1012.7
2017-07-05T02:15:12.305Z,1012.8
2017-07-05T02:16:13.956Z,1012.7
2017-07-05T02:17:15.379Z,1012.7
2017-07-05T02:18:17.046Z,1012.7
2017-07-05T02:19:18.444Z,1012.7
2017-07-05T02:20:20.133Z,1012.7
2017-07-05T02:21:21.534Z,1012.7
2017-07-05T02:22:24.251Z,1012.7
2017-07-05T02:23:25.651Z,1012.7
2017-07-05T02:24:27.361Z,1012.6
2017-07-05T02:25:28.737Z,1012.7
2017-07-05T02:26:30.430Z,1012.6
2017-07-05T02:27:31.814Z,1012.6
2017-07-05T02:28:33.502Z,1012.5
2017-07-05T02:29:34.924Z,1012.6
2017-07-05T02:30:36.585Z,1012.6
2017-07-05T02:31:37.978Z,1012.5
2017-07-05T02:32:39.688Z,1012.5
2017-07-05T02:33:41.088Z,1012.5
2017-07-05T02:34:42.789Z,1012.5
2017-07-05T02:35:44.239Z,1012.5
2017-07-05T02:36:45.617Z,1012.5
2017-07-05T02:37:47.289Z,1012.5
2017-07-05T02:38:48.690Z,1012.5
2017-07-05T02:39:50.127Z,1012.5
2017-07-05T02:40:51.800Z,1012.6
2017-07-05T02:41:53.198Z,1012.5
2017-07-05T02:42:54.598Z,1012.5
2017-07-05T02:43:56.328Z,1012.5
2017-07-05T02:44:57.738Z,1012.5
2017-07-05T02:45:59.142Z,1012.5
2017-07-05T02:47:00.650Z,1012.5
2017-07-05T02:48:02.048Z,1012.4
2017-07-05T02:49:03.459Z,1012.4
2017-07-05T02:50:05.021Z,1012.4
2017-07-05T02:51:06.407Z,1012.4
2017-07-05T02:52:07.807Z,1012.3
2017-07-05T02:53:09.511Z,1012.4
2017-07-05T02:54:10.896Z,1012.4
2017-07-05T02:55:12.587Z,1012.4
2017-07-05T02:56:14.009Z,1012.4
2017-07-05T02:57:15.662Z,1012.3
2017-07-05T02:58:17.064Z,1012.3
2017-07-05T02:59:18.834Z,1012.3
2017-07-05T03:00:20.187Z,1012.3
2017-07-05T03:01:21.611Z,1012.3
2017-07-05T03:02:23.275Z,1012.3
2017-07-05T03:03:24.675Z,1012.2
2017-07-05T03:04:26.074Z,1012.3
2017-07-05T03:05:27.604Z,1012.3
2017-07-05T03:06:29.006Z,1012.3
2017-07-05T03:07:30.698Z,1012.3
2017-07-05T03:08:32.138Z,1012.3
2017-07-05T03:09:33.766Z,1012.3
2017-07-05T03:10:35.173Z,1012.3
2017-07-05T03:11:36.853Z,1012.3
2017-07-05T03:12:38.253Z,1012.2
2017-07-05T03:13:39.941Z,1012.3
2017-07-05T03:14:41.340Z,1012.2
2017-07-05T03:15:43.041Z,1012.2
2017-07-05T03:16:44.452Z,1012.2
2017-07-05T03:17:46.128Z,1012.1
2017-07-05T03:18:47.526Z,1012.1
2017-07-05T03:19:49.195Z,1012.1
2017-07-05T03:20:50.594Z,1012.1
2017-07-05T03:21:52.007Z,1012.2
2017-07-05T03:22:54.554Z,1012.2
2017-07-05T03:23:55.950Z,1012.2
2017-07-05T03:24:57.358Z,1012.2
2017-07-05T03:25:58.860Z,1012.2
2017-07-05T03:27:00.259Z,1012.1
2017-07-05T03:28:01.689Z,1012.2
2017-07-05T03:29:03.182Z,1012.2
2017-07-05T03:30:04.583Z,1012.3
2017-07-05T03:31:05.982Z,1012.3
2017-07-05T03:32:07.565Z,1012.2
2017-07-05T03:33:08.941Z,1012.2
2017-07-05T03:34:10.628Z,1012.2
2017-07-05T03:35:12.024Z,1012.2
2017-07-05T03:36:13.702Z,1012.2
2017-07-05T03:37:15.099Z,1012.3
2017-07-05T03:38:16.503Z,1012.3
2017-07-05T03:39:17.952Z,1012.3
2017-07-05T03:40:19.357Z,1012.3
2017-07-05T03:41:20.784Z,1012.2
2017-07-05T03:42:22.317Z,1012.2
2017-07-05T03:43:23.752Z,1012.3
2017-07-05T03:44:25.141Z,1012.2
2017-07-05T03:45:26.639Z,1012.2
2017-07-05T03:46:28.059Z,1012.2
2017-07-05T03:47:29.465Z,1012.2
2017-07-05T03:48:30.993Z,1012.2
2017-07-05T03:49:32.399Z,1012.2
2017-07-05T03:50:33.835Z,1012.2
2017-07-05T03:51:35.490Z,1012.2
2017-07-05T03:52:36.889Z,1012.2
2017-07-05T03:53:38.570Z,1012.2
2017-07-05T03:54:39.970Z,1012.1
2017-07-05T03:55:41.662Z,1012.1
2017-07-05T03:56:43.064Z,1012.2
2017-07-05T03:57:44.740Z,1012.1
2017-07-05T03:58:46.141Z,1012.2
2017-07-05T03:59:47.834Z,1012.2
2017-07-05T04:00:49.302Z,1012.2
2017-07-05T04:01:50.910Z,1012.2
2017-07-05T04:02:52.327Z,1012.2
2017-07-05T04:03:53.995Z,1012.2
2017-07-05T04:04:55.400Z,1012.2
2017-07-05T04:05:57.107Z,1012.2
2017-07-05T04:06:58.509Z,1012.2
2017-07-05T04:08:00.165Z,1012.2
2017-07-05T04:09:01.575Z,1012.2
2017-07-05T04:10:03.260Z,1012.2
2017-07-05T04:11:04.667Z,1012.2
2017-07-05T04:12:06.096Z,1012.2
2017-07-05T04:13:07.578Z,1012.2
2017-07-05T04:14:08.981Z,1012.2
2017-07-05T04:15:10.382Z,1012.2
2017-07-05T04:16:11.828Z,1012.2
2017-07-05T04:17:13.252Z,1012.2
2017-07-05T04:18:14.654Z,1012.2
2017-07-05T04:19:16.182Z,1012.3
2017-07-05T04:20:17.585Z,1012.2
2017-07-05T04:21:19.030Z,1012.3
2017-07-05T04:22:20.429Z,1012.2
2017-07-05T04:23:21.912Z,1012.3
2017-07-05T04:24:23.314Z,1012.3
2017-07-05T04:25:24.808Z,1012.3
2017-07-05T04:26:26.215Z,1012.3
2017-07-05T04:27:27.636Z,1012.3
2017-07-05T04:28:29.128Z,1012.3
2017-07-05T04:29:30.528Z,1012.3
2017-07-05T04:30:31.919Z,1012.2
2017-07-05T04:31:33.437Z,1012.2
2017-07-05T04:32:34.837Z,1012.2
2017-07-05T04:33:36.238Z,1012.2
2017-07-05T04:34:37.757Z,1012.3
2017-07-05T04:35:39.157Z,1012.3
2017-07-05T04:36:40.559Z,1012.3
2017-07-05T04:37:42.079Z,1012.2
2017-07-05T04:38:43.481Z,1012.2
2017-07-05T04:39:44.900Z,1012.2
2017-07-05T04:40:47.475Z,1012.2
2017-07-05T04:41:48.878Z,1012.3
2017-07-05T04:42:50.279Z,1012.3
2017-07-05T04:43:51.747Z,1012.3
2017-07-05T04:44:53.148Z,1012.3
2017-07-05T04:45:54.550Z,1012.4
2017-07-05T04:46:56.070Z,1012.4
2017-07-05T04:47:57.470Z,1012.4
2017-07-05T04:48:58.953Z,1012.4
2017-07-05T04:50:00.353Z,1012.4
2017-07-05T04:51:01.832Z,1012.4
2017-07-05T04:52:03.239Z,1012.4
2017-07-05T04:53:04.639Z,1012.5
2017-07-05T04:54:06.151Z,1012.5
2017-07-05T04:55:07.557Z,1012.5
2017-07-05T04:56:08.958Z,1012.5
2017-07-05T04:57:10.471Z,1012.5
2017-07-05T04:58:11.881Z,1012.5
2017-07-05T04:59:13.318Z,1012.5
2017-07-05T05:00:14.809Z,1012.5
2017-07-05T05:01:16.218Z,1012.5
2017-07-05T05:02:17.614Z,1012.5
2017-07-05T05:03:19.116Z,1012.5
2017-07-05T05:04:20.518Z,1012.5
2017-07-05T05:05:21.998Z,1012.5
2017-07-05T05:06:23.401Z,1012.5
2017-07-05T05:07:24.877Z,1012.5
2017-07-05T05:08:26.292Z,1012.5
2017-07-05T05:09:27.762Z,1012.5
2017-07-05T05:10:29.164Z,1012.5
2017-07-05T05:11:30.640Z,1012.5
2017-07-05T05:12:32.043Z,1012.6
2017-07-05T05:13:33.445Z,1012.5
2017-07-05T05:14:34.985Z,1012.6
2017-07-05T05:15:36.392Z,1012.5
2017-07-05T05:16:37.791Z,1012.6
2017-07-05T05:17:39.284Z,1012.6
2017-07-05T05:18:40.687Z,1012.6
2017-07-05T05:19:42.094Z,1012.6
2017-07-05T05:20:43.601Z,1012.6
2017-07-05T05:21:45.013Z,1012.6
2017-07-05T05:22:46.420Z,1012.6
2017-07-05T05:23:47.927Z,1012.7
2017-07-05T05:24:49.330Z,1012.7
2017-07-05T05:25:50.732Z,1012.6
2017-07-05T05:26:52.248Z,1012.6
2017-07-05T05:27:53.654Z,1012.6
2017-07-05T05:28:55.054Z,1012.6
2017-07-05T05:29:56.571Z,1012.6
2017-07-05T05:30:57.988Z,1012.6
2017-07-05T05:31:59.451Z,1012.6
2017-07-05T05:33:00.860Z,1012.6
2017-07-05T05:34:02.266Z,1012.6
2017-07-05T05:35:03.778Z,1012.6
2017-07-05T05:36:05.179Z,1012.6
2017-07-05T05:37:06.587Z,1012.6
2017-07-05T05:38:08.096Z,1012.6
2017-07-05T05:39:09.497Z,1012.6
2017-07-05T05:40:10.914Z,1012.6
2017-07-05T05:41:12.418Z,1012.7
2017-07-05T05:42:13.822Z,1012.7
2017-07-05T05:43:15.228Z,1012.7
2017-07-05T05:44:16.744Z,1012.7
2017-07-05T05:45:18.161Z,1012.7
2017-07-05T05:46:19.560Z,1012.7
2017-07-05T05:47:21.061Z,1012.8
2017-07-05T05:48:22.467Z,1012.7
2017-07-05T05:49:23.872Z,1012.7
2017-07-05T05:50:25.382Z,1012.7
2017-07-05T05:51:26.788Z,1012.8
2017-07-05T05:52:28.192Z,1012.8
2017-07-05T05:53:29.769Z,1012.8
2017-07-05T05:54:31.175Z,1012.8
2017-07-05T05:55:32.581Z,1012.8
2017-07-05T05:56:34.027Z,1012.8
2017-07-05T05:57:35.431Z,1012.9
2017-07-05T05:58:36.843Z,1012.8
2017-07-05T05:59:38.349Z,1012.9
2017-07-05T06:00:39.753Z,1012.9
2017-07-05T06:01:41.229Z,1012.9
2017-07-05T06:02:42.634Z,1012.9
2017-07-05T06:03:44.036Z,1012.9
2017-07-05T06:04:45.550Z,1012.9
2017-07-05T06:05:46.956Z,1013.0
2017-07-05T06:06:48.369Z,1013.0
2017-07-05T06:07:49.873Z,1012.9
2017-07-05T06:08:51.283Z,1012.9
2017-07-05T06:09:52.723Z,1012.9
2017-07-05T06:10:54.251Z,1012.9
2017-07-05T06:11:55.608Z,1012.9
2017-07-05T06:12:57.019Z,1013.0
2017-07-05T06:13:58.513Z,1013.0
2017-07-05T06:14:59.919Z,1013.0
2017-07-05T06:16:01.331Z,1013.0
2017-07-05T06:17:02.836Z,1013.0
2017-07-05T06:18:04.235Z,1013.0
2017-07-05T06:19:05.647Z,1013.0
2017-07-05T06:20:07.159Z,1013.0
2017-07-05T06:21:08.565Z,1013.0
2017-07-05T06:22:09.985Z,1013.0
2017-07-05T06:23:11.479Z,1013.0
2017-07-05T06:24:12.885Z,1013.0
2017-07-05T06:25:14.360Z,1013.0
2017-07-05T06:26:15.767Z,1013.0
2017-07-05T06:27:17.242Z,1013.0
2017-07-05T06:28:18.650Z,1013.1
2017-07-05T06:29:20.119Z,1013.1
2017-07-05T06:30:21.527Z,1013.1
2017-07-05T06:31:23.002Z,1013.2
2017-07-05T06:32:24.409Z,1013.1
2017-07-05T06:33:25.884Z,1013.1
2017-07-05T06:34:27.299Z,1013.1
2017-07-05T06:35:28.700Z,1013.2
2017-07-05T06:36:30.205Z,1013.2
2017-07-05T06:37:31.611Z,1013.2
2017-07-05T06:38:33.019Z,1013.2
2017-07-05T06:39:34.526Z,1013.2
2017-07-05T06:40:35.934Z,1013.2
2017-07-05T06:41:37.409Z,1013.2
2017-07-05T06:42:38.814Z,1013.2
2017-07-05T06:43:40.293Z,1013.2
2017-07-05T06:44:41.702Z,1013.2
2017-07-05T06:45:43.171Z,1013.2
2017-07-05T06:46:44.591Z,1013.2
2017-07-05T06:47:46.050Z,1013.3
2017-07-05T06:48:47.461Z,1013.3
2017-07-05T06:49:48.865Z,1013.3
2017-07-05T06:50:50.375Z,1013.3
2017-07-05T06:51:51.786Z,1013.3
2017-07-05T06:52:53.195Z,1013.3
2017-07-05T06:53:54.694Z,1013.3
2017-07-05T06:54:56.100Z,1013.3
2017-07-05T06:55:57.579Z,1013.4
2017-07-05T06:56:58.979Z,1013.4
2017-07-05T06:58:00.456Z,1013.4
2017-07-05T06:59:01.866Z,1013.3
2017-07-05T07:00:03.273Z,1013.4
2017-07-05T07:01:04.777Z,1013.4
2017-07-05T07:02:06.186Z,1013.4
2017-07-05T07:03:07.596Z,1013.4
2017-07-05T07:04:09.099Z,1013.4
2017-07-05T07:05:10.511Z,1013.5
2017-07-05T07:06:11.925Z,1013.5
2017-07-05T07:07:13.423Z,1013.5
2017-07-05T07:08:14.834Z,1013.5
2017-07-05T07:09:16.242Z,1013.5
2017-07-05T07:10:17.745Z,1013.5
2017-07-05T07:11:19.153Z,1013.5
2017-07-05T07:12:20.623Z,1013.5
2017-07-05T07:13:22.029Z,1013.5
2017-07-05T07:14:23.437Z,1013.4
2017-07-05T07:15:24.945Z,1013.5
2017-07-05T07:16:26.352Z,1013.5
2017-07-05T07:17:27.762Z,1013.4
2017-07-05T07:18:29.268Z,1013.5
2017-07-05T07:19:30.672Z,1013.5
2017-07-05T07:20:32.116Z,1013.5
2017-07-05T07:21:33.612Z,1013.6
2017-07-05T07:22:35.023Z,1013.6
2017-07-05T07:23:36.441Z,1013.6
2017-07-05T07:24:37.913Z,1013.6
2017-07-05T07:25:39.320Z,1013.6
2017-07-05T07:26:40.796Z,1013.5
2017-07-05T07:27:42.203Z,1013.5
2017-07-05T07:28:43.675Z,1013.5
2017-07-05T07:29:45.090Z,1013.5
2017-07-05T07:30:46.493Z,1013.5
2017-07-05T07:31:47.998Z,1013.5
2017-07-05T07:32:49.437Z,1013.6
2017-07-05T07:33:50.843Z,1013.5
2017-07-05T07:34:52.316Z,1013.5
2017-07-05T07:35:53.723Z,1013.5
2017-07-05T07:36:55.120Z,1013.5
2017-07-05T07:37:56.636Z,1013.5
2017-07-05T07:38:58.052Z,1013.6
2017-07-05T07:39:59.472Z,1013.6
2017-07-05T07:41:00.959Z,1013.6
2017-07-05T07:42:02.367Z,1013.7
2017-07-05T07:43:03.836Z,1013.7
2017-07-05T07:44:05.246Z,1013.7
2017-07-05T07:45:06.725Z,1013.7
2017-07-05T07:46:08.139Z,1013.7
2017-07-05T07:47:09.603Z,1013.7
2017-07-05T07:48:11.011Z,1013.7
2017-07-05T07:49:12.485Z,1013.7
2017-07-05T07:50:13.892Z,1013.8
2017-07-05T07:51:15.299Z,1013.8
2017-07-05T07:52:16.808Z,1013.8
2017-07-05T07:53:18.213Z,1013.8
2017-07-05T07:54:19.622Z,1013.8
2017-07-05T07:55:21.130Z,1013.8
2017-07-05T07:56:22.546Z,1013.9
2017-07-05T07:57:23.979Z,1013.9
2017-07-05T07:58:25.450Z,1014.1
2017-07-05T07:59:26.861Z,1014.2
2017-07-05T08:00:28.293Z,1014.1
2017-07-05T08:01:29.769Z,1014.0
2017-07-05T08:02:31.181Z,1014.1
2017-07-05T08:03:32.586Z,1014.2
2017-07-05T08:04:34.093Z,1014.0
2017-07-05T08:05:35.506Z,1014.0
2017-07-05T08:06:36.914Z,1014.0
2017-07-05T08:07:38.413Z,1014.0
2017-07-05T08:08:39.819Z,1013.9
2017-07-05T08:09:41.229Z,1013.9
2017-07-05T08:10:42.749Z,1013.9
2017-07-05T08:11:44.173Z,1013.9
2017-07-05T08:12:45.641Z,1013.9
2017-07-05T08:13:47.054Z,1014.1
2017-07-05T08:14:48.499Z,1014.2
2017-07-05T08:15:49.906Z,1014.2
2017-07-05T08:16:51.313Z,1013.9
2017-07-05T08:17:52.840Z,1013.9
2017-07-05T08:18:54.246Z,1013.9
2017-07-05T08:19:55.665Z,1013.9
2017-07-05T08:20:57.142Z,1013.9
2017-07-05T08:21:58.549Z,1014.1
2017-07-05T08:22:59.960Z,1014.2
2017-07-05T08:24:01.480Z,1014.4
2017-07-05T08:25:02.891Z,1014.8
2017-07-05T08:26:04.297Z,1014.7
2017-07-05T08:27:05.784Z,1014.3
2017-07-05T08:28:07.220Z,1014.3
2017-07-05T08:29:08.637Z,1014.3
2017-07-05T08:30:10.106Z,1014.3
2017-07-05T08:31:11.513Z,1014.3
2017-07-05T08:32:12.986Z,1014.2
2017-07-05T08:33:14.398Z,1014.3
2017-07-05T08:34:15.869Z,1014.3
2017-07-05T08:35:17.278Z,1014.3
2017-07-05T08:36:18.749Z,1014.3
2017-07-05T08:37:20.161Z,1014.3
2017-07-05T08:38:21.630Z,1014.4
2017-07-05T08:39:23.049Z,1014.5
2017-07-05T08:40:24.509Z,1014.5
2017-07-05T08:41:25.948Z,1014.4
2017-07-05T08:42:27.393Z,1014.4
2017-07-05T08:43:28.803Z,1014.5
2017-07-05T08:44:30.272Z,1014.5
2017-07-05T08:45:31.691Z,1014.4
2017-07-05T08:46:33.172Z,1014.4
2017-07-05T08:47:34.590Z,1014.6
2017-07-05T08:48:36.041Z,1014.6
2017-07-05T08:49:37.454Z,1014.5
2017-07-05T08:50:38.915Z,1014.4
2017-07-05T08:51:40.323Z,1014.4
2017-07-05T08:52:41.798Z,1014.2
2017-07-05T08:53:43.209Z,1014.3
2017-07-05T08:54:44.697Z,1014.4
2017-07-05T08:55:46.107Z,1014.5
2017-07-05T08:56:47.528Z,1014.6
2017-07-05T08:57:49.003Z,1014.7
2017-07-05T08:58:50.412Z,1015.0
2017-07-05T08:59:51.829Z,1014.9
2017-07-05T09:00:53.320Z,1014.8
2017-07-05T09:01:54.731Z,1014.9
2017-07-05T09:02:56.200Z,1014.9
2017-07-05T09:03:57.613Z,1014.9
2017-07-05T09:04:59.084Z,1014.8
2017-07-05T09:06:00.494Z,1015.0
2017-07-05T09:07:01.966Z,1015.0
2017-07-05T09:08:03.378Z,1015.3
2017-07-05T09:09:04.843Z,1015.2
2017-07-05T09:10:06.272Z,1015.1
2017-07-05T09:11:07.683Z,1014.9
2017-07-05T09:12:09.167Z,1015.2
2017-07-05T09:13:10.584Z,1015.6
2017-07-05T09:14:11.993Z,1015.6
2017-07-05T09:15:13.488Z,1015.2
2017-07-05T09:16:14.902Z,1015.3
2017-07-05T09:17:16.313Z,1015.3
2017-07-05T09:18:17.825Z,1015.3
2017-07-05T09:19:19.238Z,1015.2
2017-07-05T09:20:20.648Z,1015.3
2017-07-05T09:21:22.134Z,1015.1
2017-07-05T09:22:23.543Z,1015.7
2017-07-05T09:23:25.012Z,1015.6
2017-07-05T09:24:26.423Z,1019.1
2017-07-05T09:25:27.896Z,1016.9
2017-07-05T09:26:29.339Z,1017.3
2017-07-05T09:27:30.744Z,1016.3
2017-07-05T09:28:32.214Z,1021.2
2017-07-05T09:29:33.629Z,1016.4
2017-07-05T09:30:35.045Z,1015.5
2017-07-05T09:31:36.536Z,1017.6
2017-07-05T09:32:37.953Z,1015.9
2017-07-05T09:33:39.415Z,1015.2
2017-07-05T09:34:40.829Z,1014.2
2017-07-05T09:35:42.300Z,1013.8
2017-07-05T09:36:43.711Z,1013.9
2017-07-05T09:37:45.180Z,1014.2
2017-07-05T09:38:46.593Z,1015.1
2017-07-05T09:39:48.060Z,1015.0
2017-07-05T09:40:49.472Z,1014.3
2017-07-05T09:41:50.940Z,1014.7
2017-07-05T09:42:52.349Z,1014.2
2017-07-05T09:43:53.822Z,1014.2
2017-07-05T09:44:55.233Z,1014.1
2017-07-05T09:45:56.714Z,1013.8
2017-07-05T09:46:58.117Z,1013.7
2017-07-05T09:47:59.526Z,1013.6
2017-07-05T09:49:01.027Z,1013.7
2017-07-05T09:50:02.439Z,1013.8
2017-07-05T09:51:03.845Z,1013.8
2017-07-05T09:52:05.346Z,1016.0
2017-07-05T09:53:06.759Z,1013.9
2017-07-05T09:54:08.271Z,1013.8
2017-07-05T09:55:09.686Z,1023.6
2017-07-05T09:56:11.316Z,1025.3
2017-07-05T09:57:12.723Z,1014.1
2017-07-05T09:58:14.197Z,1014.7
2017-07-05T09:59:15.613Z,1015.5
2017-07-05T10:00:17.078Z,1015.5
2017-07-05T10:01:18.494Z,1015.1
2017-07-05T10:02:19.961Z,1015.2
2017-07-05T10:03:21.367Z,1015.1
2017-07-05T10:04:22.855Z,1016.3
2017-07-05T10:05:24.271Z,1028.0
2017-07-05T10:06:26.154Z,1031.4
2017-07-05T10:07:27.577Z,1033.2
2017-07-05T10:08:29.011Z,1038.3
2017-07-05T10:09:30.423Z,1037.7
2017-07-05T10:10:31.893Z,1038.4
2017-07-05T10:11:33.305Z,1038.8
2017-07-05T10:12:34.726Z,1038.7
2017-07-05T10:13:36.245Z,1036.9
2017-07-05T10:14:37.669Z,1024.2
2017-07-05T10:15:39.130Z,1026.3
2017-07-05T10:16:40.739Z,1014.9
2017-07-05T10:17:42.154Z,1015.3
2017-07-05T10:18:43.615Z,1028.5
2017-07-05T10:19:45.060Z,1041.8
2017-07-05T10:20:46.477Z,1042.1
2017-07-05T10:21:47.890Z,1041.5
2017-07-05T10:22:49.381Z,1040.3
2017-07-05T10:23:50.804Z,1041.7
2017-07-05T10:24:52.261Z,1041.5
2017-07-05T10:25:53.680Z,1042.1
2017-07-05T10:26:55.144Z,1041.0
2017-07-05T10:27:56.563Z,1042.3
2017-07-05T10:28:58.026Z,1041.8
2017-07-05T10:29:59.442Z,1041.4
2017-07-05T10:31:00.906Z,1041.4
2017-07-05T10:32:02.324Z,1022.1
2017-07-05T10:33:03.786Z,1039.1
2017-07-05T10:34:05.207Z,1017.9
2017-07-05T10:35:06.666Z,1037.5
2017-07-05T10:36:08.086Z,1034.9
2017-07-05T10:37:09.507Z,1021.8
2017-07-05T10:38:11.003Z,1016.7
2017-07-05T10:39:12.419Z,1035.0
2017-07-05T10:40:13.833Z,1026.0
2017-07-05T10:41:15.310Z,1032.1
2017-07-05T10:42:16.729Z,1029.7
2017-07-05T10:43:18.146Z,1020.8
2017-07-05T10:44:19.631Z,1018.5
2017-07-05T10:45:21.048Z,1016.7
2017-07-05T10:46:22.461Z,1017.7
2017-07-05T10:47:23.954Z,1014.4
2017-07-05T10:48:25.365Z,1014.1
2017-07-05T10:49:26.778Z,1014.1
2017-07-05T10:50:28.274Z,1014.3
2017-07-05T10:51:29.688Z,1015.5
2017-07-05T10:52:31.101Z,1015.4
2017-07-05T10:53:32.596Z,1014.3
2017-07-05T10:54:34.006Z,1014.0
2017-07-05T10:55:35.419Z,1013.6
2017-07-05T10:56:36.918Z,1013.4
2017-07-05T10:57:38.329Z,1013.4
2017-07-05T10:58:39.746Z,1013.5
2017-07-05T10:59:41.242Z,1013.9
2017-07-05T11:00:42.655Z,1023.1
2017-07-05T11:01:44.070Z,1029.8
2017-07-05T11:02:45.582Z,1025.0
2017-07-05T11:03:46.998Z,1028.9
2017-07-05T11:04:48.446Z,1026.0
2017-07-05T11:05:49.862Z,1024.3
2017-07-05T11:06:51.323Z,1017.5
2017-07-05T11:07:52.734Z,1024.6
2017-07-05T11:08:54.207Z,1023.5
2017-07-05T11:09:55.617Z,1020.2
2017-07-05T11:10:57.090Z,1022.5
2017-07-05T11:11:58.501Z,1022.2
2017-07-05T11:12:59.921Z,1016.0
2017-07-05T11:14:01.409Z,1014.8
2017-07-05T11:15:02.822Z,1014.1
2017-07-05T11:16:04.236Z,1016.2
2017-07-05T11:17:05.732Z,1017.1
2017-07-05T11:18:07.144Z,1016.1
2017-07-05T11:19:08.612Z,1014.3
2017-07-05T11:20:10.027Z,1013.9
2017-07-05T11:21:11.490Z,1013.7
2017-07-05T11:22:12.903Z,1013.7
2017-07-05T11:23:14.315Z,1014.0
2017-07-05T11:24:15.812Z,1014.0
2017-07-05T11:25:17.227Z,1014.1
2017-07-05T11:26:18.642Z,1015.0
2017-07-05T11:27:20.142Z,1018.4
2017-07-05T11:28:21.574Z,1017.4
2017-07-05T11:29:22.990Z,1017.5
2017-07-05T11:30:24.465Z,1018.1
2017-07-05T11:31:25.877Z,1018.1
2017-07-05T11:32:27.287Z,1017.9
2017-07-05T11:33:28.821Z,1017.9
2017-07-05T11:34:30.242Z,1017.1
2017-07-05T11:35:31.663Z,1017.2
2017-07-05T11:36:33.138Z,1016.6
2017-07-05T11:37:34.549Z,1016.9
2017-07-05T11:38:35.963Z,1015.9
2017-07-05T11:39:37.421Z,1015.7
2017-07-05T11:40:38.832Z,1016.3
2017-07-05T11:41:40.301Z,1016.6
2017-07-05T11:42:41.717Z,1016.7
2017-07-05T11:43:43.184Z,1016.3
2017-07-05T11:44:44.599Z,1016.2
2017-07-05T11:45:46.081Z,1016.3
2017-07-05T11:46:47.496Z,1016.1
2017-07-05T11:47:48.947Z,1015.4
2017-07-05T11:48:50.357Z,1014.3
2017-07-05T11:49:51.828Z,1014.1
2017-07-05T11:50:53.240Z,1014.0
2017-07-05T11:51:54.706Z,1014.2
2017-07-05T11:52:56.118Z,1016.1
2017-07-05T11:53:57.614Z,1016.3
2017-07-05T11:54:59.025Z,1016.4
2017-07-05T11:56:00.471Z,1016.3
2017-07-05T11:57:01.887Z,1016.3
2017-07-05T11:58:03.350Z,1016.6
2017-07-05T11:59:04.773Z,1015.6
2017-07-05T12:00:06.234Z,1015.3
2017-07-05T12:01:07.647Z,1016.1
2017-07-05T12:02:09.072Z,1016.4
2017-07-05T12:03:10.603Z,1015.0
2017-07-05T12:06:50.334Z,1013.9
2017-07-05T12:07:51.742Z,1013.7
2017-07-05T12:08:53.150Z,1013.5
2017-07-05T12:09:54.627Z,1013.6
2017-07-05T12:10:56.035Z,1013.5
2017-07-05T12:11:57.510Z,1013.5
2017-07-05T12:12:58.925Z,1014.3
2017-07-05T12:14:00.389Z,1013.8
2017-07-05T12:15:01.798Z,1016.1
2017-07-05T12:16:03.291Z,1013.6
2017-07-05T12:17:04.716Z,1013.7
2017-07-05T12:18:06.154Z,1015.9
2017-07-05T12:19:07.568Z,1016.1
2017-07-05T12:20:08.976Z,1016.7
2017-07-05T12:21:10.472Z,1018.3
2017-07-05T12:22:11.880Z,1018.9
2017-07-05T12:23:13.279Z,1018.9
2017-07-05T12:24:14.801Z,1019.2
2017-07-05T12:25:16.233Z,1019.1
2017-07-05T12:26:17.680Z,1014.8
2017-07-05T12:27:19.088Z,1016.4
2017-07-05T12:28:20.597Z,1018.3
2017-07-05T12:29:22.046Z,1014.4
2017-07-05T12:30:23.644Z,1013.7
2017-07-05T12:31:25.053Z,1013.4
2017-07-05T12:32:26.528Z,1013.3
2017-07-05T12:33:27.941Z,1013.4
2017-07-05T12:34:29.408Z,1013.5
2017-07-05T12:35:30.860Z,1013.3
2017-07-05T12:36:32.285Z,1013.1
2017-07-05T12:37:33.694Z,1013.1
2017-07-05T12:38:35.178Z,1013.1
2017-07-05T12:39:36.585Z,1013.2
2017-07-05T12:40:38.051Z,1013.6
2017-07-05T12:41:39.465Z,1016.4
2017-07-05T12:42:40.936Z,1016.5
2017-07-05T12:43:42.348Z,1016.5
2017-07-05T12:44:43.816Z,1016.3
2017-07-05T12:45:45.231Z,1014.3
2017-07-05T12:46:46.695Z,1013.6
2017-07-05T12:47:48.107Z,1013.3
2017-07-05T12:48:49.590Z,1013.2
2017-07-05T12:49:51.004Z,1013.1